createdAt,value
2022-11-13T00:00:22.417Z,4.70
2022-11-13T00:05:23.888Z,5.25
2022-11-13T00:10:25.347Z,4.75
2022-11-13T00:15:26.818Z,4.05
2022-11-13T00:20:28.390Z,4.53
2022-11-13T00:25:29.848Z,5.50
2022-11-13T00:30:31.305Z,5.30
2022-11-13T00:35:33.981Z,4.97
2022-11-13T00:45:36.797Z,5.88
2022-11-13T00:50:38.251Z,6.20
2022-11-13T00:55:39.723Z,5.35
2022-11-13T01:00:41.993Z,6.45
2022-11-13T01:05:44.717Z,6.35
2022-11-13T01:10:53.135Z,6.80
2022-11-13T01:15:55.304Z,7.43
2022-11-13T01:21:10.954Z,6.63
2022-11-13T01:26:20.590Z,7.75
2022-11-13T01:31:23.986Z,8.80
2022-11-13T01:36:26.942Z,8.18
2022-11-13T01:41:32.618Z,9.38
2022-11-13T01:46:41.686Z,8.70
2022-11-13T01:56:47.035Z,9.13
2022-11-13T02:01:48.727Z,9.02
2022-11-13T02:06:55.980Z,8.50
2022-11-13T02:11:57.482Z,8.45
2022-11-13T02:17:00.107Z,8.10
2022-11-13T02:27:11.860Z,7.78
2022-11-13T02:32:13.314Z,7.90
2022-11-13T02:37:14.758Z,8.20
2022-11-13T02:42:16.228Z,7.85
2022-11-13T02:47:17.693Z,8.85
2022-11-13T02:52:19.236Z,8.32
2022-11-13T02:57:20.725Z,8.80
2022-11-13T03:02:22.192Z,8.32
2022-11-13T03:07:23.726Z,7.43
2022-11-13T03:12:25.219Z,7.35
2022-11-13T03:17:26.679Z,7.53
2022-11-13T03:22:28.192Z,7.15
2022-11-13T03:27:31.039Z,7.93
2022-11-13T03:32:32.502Z,6.53
2022-11-13T03:37:33.968Z,7.53
2022-11-13T03:42:36.144Z,7.70
2022-11-13T03:47:37.606Z,6.93
2022-11-13T03:52:39.092Z,6.10
2022-11-13T03:57:40.546Z,6.63
2022-11-13T04:02:42.036Z,6.72
2022-11-13T04:07:43.491Z,6.85
2022-11-13T04:12:44.952Z,6.85
2022-11-13T04:17:46.426Z,6.57
2022-11-13T04:22:47.895Z,6.07
2022-11-13T04:27:50.357Z,6.55
2022-11-13T04:32:51.813Z,7.13
2022-11-13T04:37:53.265Z,6.32
2022-11-13T04:42:54.721Z,7.10
2022-11-13T04:47:56.207Z,7.60
2022-11-13T04:52:57.664Z,7.70
2022-11-13T04:57:59.123Z,7.38
2022-11-13T05:03:00.614Z,6.72
2022-11-13T05:08:02.086Z,6.60
2022-11-13T05:13:03.545Z,6.60
2022-11-13T05:18:05.013Z,8.27
2022-11-13T05:23:06.485Z,6.97
2022-11-13T05:28:07.995Z,7.13
2022-11-13T05:33:09.469Z,7.00
2022-11-13T05:38:11.166Z,6.65
2022-11-13T05:43:12.619Z,7.10
2022-11-13T05:48:14.085Z,6.88
2022-11-13T05:53:15.539Z,7.10
2022-11-13T05:58:17.025Z,6.68
2022-11-13T06:03:18.498Z,12.30
2022-11-13T06:08:19.967Z,7.55
2022-11-13T06:13:21.427Z,7.13
2022-11-13T06:18:26.496Z,7.25
2022-11-13T06:23:28.381Z,7.95
2022-11-13T06:28:30.165Z,7.03
2022-11-13T06:33:31.977Z,7.90
2022-11-13T06:38:34.939Z,7.43
2022-11-13T06:43:36.443Z,7.80
2022-11-13T06:48:37.919Z,7.45
2022-11-13T06:53:39.391Z,8.43
2022-11-13T06:58:40.893Z,7.05
2022-11-13T07:03:42.360Z,7.68
2022-11-13T07:08:43.921Z,8.20
2022-11-13T07:13:45.512Z,7.85
2022-11-13T07:18:50.223Z,8.07
2022-11-13T07:23:51.740Z,8.40
2022-11-13T07:28:53.200Z,8.35
2022-11-13T07:33:54.648Z,8.98
2022-11-13T07:39:00.099Z,9.98
2022-11-13T07:44:04.385Z,9.43
2022-11-13T07:49:08.161Z,9.55
2022-11-13T07:54:09.624Z,8.93
2022-11-13T07:59:11.100Z,8.77
2022-11-13T08:04:12.581Z,8.23
2022-11-13T08:09:14.045Z,8.93
2022-11-13T08:14:15.512Z,8.57
2022-11-13T08:19:16.975Z,8.38
2022-11-13T08:24:18.427Z,9.27
2022-11-13T08:29:19.894Z,8.80
2022-11-13T08:34:21.361Z,9.50
2022-11-13T08:39:22.842Z,9.13
2022-11-13T08:44:24.295Z,10.95
2022-11-13T08:49:25.802Z,9.35
2022-11-13T08:54:27.254Z,9.45
2022-11-13T08:59:28.710Z,10.02
2022-11-13T09:04:30.168Z,9.90
2022-11-13T09:09:31.640Z,10.00
2022-11-13T09:14:33.110Z,10.00
2022-11-13T09:19:34.598Z,9.93
2022-11-13T09:24:36.081Z,9.93
2022-11-13T09:29:37.551Z,11.18
2022-11-13T09:34:39.023Z,10.57
2022-11-13T09:39:40.502Z,10.38
2022-11-13T09:45:01.475Z,11.68
2022-11-13T09:50:05.243Z,11.38
2022-11-13T09:55:09.080Z,11.13
2022-11-13T10:00:12.705Z,10.68
2022-11-13T10:05:32.891Z,10.88
2022-11-13T10:10:55.218Z,10.48
2022-11-13T10:16:09.839Z,10.93
2022-11-13T10:21:31.874Z,11.00
2022-11-13T10:26:33.380Z,11.88
2022-11-13T10:32:03.071Z,11.88
2022-11-13T10:37:10.467Z,12.52
2022-11-13T10:42:27.593Z,11.70
2022-11-13T10:48:01.982Z,12.43
2022-11-13T10:52:54.190Z,12.38
2022-11-13T10:57:57.378Z,12.77
2022-11-13T11:02:58.837Z,13.23
2022-11-13T11:08:00.448Z,12.38
2022-11-13T11:13:12.475Z,12.07
2022-11-13T11:18:23.122Z,12.90
2022-11-13T11:23:41.610Z,12.38
2022-11-13T11:28:53.972Z,12.25
2022-11-13T11:34:11.520Z,11.45
2022-11-13T11:39:28.164Z,11.60
2022-11-13T11:44:45.618Z,13.35
2022-11-13T11:49:47.083Z,11.95
2022-11-13T11:55:01.208Z,12.57
2022-11-13T12:00:09.981Z,12.60
2022-11-13T12:05:41.598Z,13.07
2022-11-13T12:10:45.362Z,12.32
2022-11-13T12:15:52.524Z,11.55
2022-11-13T12:20:59.501Z,12.02
2022-11-13T12:26:27.173Z,11.00
2022-11-13T12:31:56.742Z,12.82
2022-11-13T12:36:58.218Z,12.30
2022-11-13T12:42:30.470Z,12.52
2022-11-13T12:47:34.292Z,11.55
2022-11-13T12:52:35.785Z,11.88
2022-11-13T12:57:46.985Z,11.77
2022-11-13T13:02:57.747Z,11.10
2022-11-13T13:08:05.487Z,12.25
2022-11-13T13:13:20.961Z,11.23
2022-11-13T13:18:28.269Z,12.30
2022-11-13T13:23:31.435Z,13.57
2022-11-13T13:28:32.958Z,11.75
2022-11-13T13:33:48.183Z,12.95
2022-11-13T13:39:15.171Z,13.25
2022-11-13T13:44:35.015Z,13.40
2022-11-13T13:49:36.469Z,13.10
2022-11-13T13:54:39.272Z,12.55
2022-11-13T13:59:41.045Z,13.02
2022-11-13T14:04:50.483Z,14.52
2022-11-13T14:10:08.193Z,16.52
2022-11-13T14:15:22.352Z,14.32
2022-11-13T14:20:24.820Z,16.33
2022-11-13T14:25:27.328Z,15.43
2022-11-13T14:30:29.072Z,15.07
2022-11-13T14:35:30.539Z,15.98
2022-11-13T14:40:33.982Z,16.58
2022-11-13T14:45:35.450Z,14.48
2022-11-13T14:50:37.245Z,16.48
2022-11-13T14:55:49.555Z,15.32
2022-11-13T15:00:51.032Z,17.40
2022-11-13T15:05:52.598Z,15.27
2022-11-13T15:10:54.076Z,16.98
2022-11-13T15:15:55.531Z,16.27
2022-11-13T15:20:57.002Z,16.38
2022-11-13T15:25:58.459Z,16.95
2022-11-13T15:30:59.972Z,16.58
2022-11-13T15:36:01.675Z,14.68
2022-11-13T15:41:09.874Z,14.18
2022-11-13T15:46:16.220Z,13.40
2022-11-13T15:51:37.539Z,15.05
2022-11-13T15:56:39.016Z,16.55
2022-11-13T16:01:41.047Z,16.33
2022-11-13T16:06:42.631Z,15.60
2022-11-13T16:11:44.165Z,15.57
2022-11-13T16:16:45.690Z,15.30
2022-11-13T16:21:47.254Z,15.82
2022-11-13T16:26:57.068Z,15.60
2022-11-13T16:31:58.546Z,14.70
2022-11-13T16:37:00.046Z,15.18
2022-11-13T16:42:01.940Z,14.43
2022-11-13T16:47:04.336Z,12.82
2022-11-13T16:52:05.925Z,13.80
2022-11-13T16:57:12.360Z,12.35
2022-11-13T17:02:15.442Z,12.15
2022-11-13T17:07:16.999Z,11.68
2022-11-13T17:12:21.921Z,11.75
2022-11-13T17:17:24.380Z,11.52
2022-11-13T17:22:25.838Z,11.73
2022-11-13T17:27:27.301Z,10.63
2022-11-13T17:32:29.803Z,10.07
2022-11-13T17:37:31.343Z,10.70
2022-11-13T17:42:33.183Z,22.17
2022-11-13T17:47:34.679Z,9.57
2022-11-13T17:52:36.182Z,10.77
2022-11-13T17:57:37.634Z,11.10
2022-11-13T18:02:39.659Z,11.05
2022-11-13T18:07:41.207Z,11.02
2022-11-13T18:12:42.672Z,11.88
2022-11-13T18:17:44.138Z,10.90
2022-11-13T18:22:45.599Z,11.40
2022-11-13T18:27:47.066Z,12.50
2022-11-13T18:32:48.552Z,11.73
2022-11-13T18:37:52.184Z,13.18
2022-11-13T18:42:53.659Z,12.65
2022-11-13T18:47:55.131Z,13.85
2022-11-13T18:52:56.995Z,15.13
2022-11-13T18:57:58.458Z,16.13
2022-11-13T19:02:59.912Z,15.35
2022-11-13T19:08:01.371Z,16.60
2022-11-13T19:13:02.831Z,16.13
2022-11-13T19:18:05.681Z,15.68
2022-11-13T19:28:11.082Z,16.50
2022-11-13T19:33:12.547Z,16.83
2022-11-13T19:38:14.045Z,15.88
2022-11-13T19:43:15.512Z,17.02
2022-11-13T19:48:18.937Z,18.75
2022-11-13T19:53:20.603Z,16.77
2022-11-13T19:58:22.082Z,15.52
2022-11-13T20:03:25.919Z,16.73
2022-11-13T20:08:28.356Z,13.65
2022-11-13T20:13:36.425Z,15.32
2022-11-13T20:18:37.922Z,13.85
2022-11-13T20:23:40.509Z,12.02
2022-11-13T20:28:42.124Z,10.77
2022-11-13T20:33:43.592Z,9.57
2022-11-13T20:38:49.407Z,9.85
2022-11-13T20:43:51.486Z,9.00
2022-11-13T20:48:52.938Z,9.43
2022-11-13T20:53:54.500Z,8.30
2022-11-13T20:58:56.013Z,7.90
2022-11-13T21:03:59.447Z,7.47
2022-11-13T21:09:01.694Z,7.50
2022-11-13T21:14:03.152Z,7.00
2022-11-13T21:19:04.600Z,7.03
2022-11-13T21:24:07.517Z,7.20
2022-11-13T21:29:08.984Z,6.63
2022-11-13T21:34:10.496Z,6.50
2022-11-13T21:39:12.021Z,6.63
2022-11-13T21:44:13.506Z,6.53
2022-11-13T21:49:15.178Z,6.40
2022-11-13T21:54:16.666Z,6.47
2022-11-13T21:59:18.125Z,5.65
2022-11-13T22:04:19.566Z,6.50
2022-11-13T22:09:25.130Z,6.00
2022-11-13T22:14:27.129Z,5.82
2022-11-13T22:19:32.278Z,5.82
2022-11-13T22:24:36.269Z,5.90
2022-11-13T22:29:37.742Z,6.25
2022-11-13T22:34:39.183Z,9.32
2022-11-13T22:39:40.633Z,6.82
2022-11-13T22:44:55.493Z,8.52
2022-11-13T22:50:00.489Z,7.78
2022-11-13T22:55:01.984Z,6.93
2022-11-13T23:00:09.126Z,6.10
2022-11-13T23:05:10.601Z,7.47
2022-11-13T23:10:12.046Z,7.03
2022-11-13T23:15:13.490Z,10.27
2022-11-13T23:20:14.940Z,8.80
2022-11-13T23:25:16.408Z,10.68
2022-11-13T23:30:17.850Z,13.07
2022-11-13T23:35:19.305Z,12.93
2022-11-13T23:40:20.760Z,14.82
2022-11-13T23:45:22.264Z,13.27
2022-11-13T23:50:23.749Z,11.93
2022-11-13T23:55:25.233Z,12.05
